Time;durP1;ratioP1;P1;durP2;ratioP2;P2;SDS_P1;SDS_P2;PMS_P1;PMS_P2;Temp;Humidity;BMP_temperature;BMP_pressure;BME280_temperature;BME280_humidity;BME280_pressure;Samples;Min_cycle;Max_cycle;Signal;HPM_P1;HPM_P2
2021/06/22 00:00:35;;;;;;;1.70;1.07;;;25.40;52.90;;;;;;4972044;28;20196;-66
2021/06/22 00:03:05;;;;;;;1.30;1.13;;;25.40;52.90;;;;;;4986254;28;20239;-66
2021/06/22 00:05:33;;;;;;;2.23;1.47;;;25.30;53.40;;;;;;4986588;28;20204;-66
2021/06/22 00:08:04;;;;;;;2.43;1.23;;;25.30;52.70;;;;;;4983688;28;20217;-66
2021/06/22 00:10:32;;;;;;;2.03;1.27;;;25.30;52.60;;;;;;4986045;28;20574;-66
2021/06/22 00:13:03;;;;;;;2.53;1.40;;;25.30;52.60;;;;;;4981724;28;20205;-66
2021/06/22 00:15:31;;;;;;;1.93;1.27;;;25.30;52.50;;;;;;5001845;28;20200;-67
2021/06/22 00:18:01;;;;;;;2.03;1.23;;;25.30;52.50;;;;;;4996034;28;20240;-67
2021/06/22 00:20:31;;;;;;;2.47;1.23;;;25.30;52.40;;;;;;4988296;28;20208;-67
2021/06/22 00:23:04;;;;;;;3.43;1.70;;;25.30;52.30;;;;;;4981788;28;20212;-66
2021/06/22 00:25:34;;;;;;;2.47;1.30;;;25.30;52.30;;;;;;4979304;28;20304;-66
2021/06/22 00:28:03;;;;;;;2.73;1.33;;;25.30;52.20;;;;;;4984020;28;20219;-66
2021/06/22 00:30:32;;;;;;;2.03;1.30;;;25.30;52.30;;;;;;4977284;28;20722;-66
2021/06/22 00:33:05;;;;;;;2.50;1.60;;;25.30;52.20;;;;;;4986662;28;20285;-66
2021/06/22 00:35:34;;;;;;;3.10;1.63;;;25.30;52.20;;;;;;4978892;28;20214;-66
2021/06/22 00:38:03;;;;;;;2.20;1.33;;;25.30;52.20;;;;;;4984301;28;20211;-66
2021/06/22 00:40:32;;;;;;;3.00;1.73;;;25.30;52.20;;;;;;4977566;28;20295;-66
2021/06/22 00:43:02;;;;;;;2.67;1.50;;;25.30;52.20;;;;;;4987390;28;20212;-66
2021/06/22 00:45:34;;;;;;;1.73;1.33;;;25.30;52.20;;;;;;4985464;28;20207;-66
2021/06/22 00:48:06;;;;;;;2.70;1.30;;;25.30;52.20;;;;;;4988374;28;20580;-66
2021/06/22 00:50:37;;;;;;;2.40;1.40;;;25.30;52.10;;;;;;4985483;28;20279;-66
2021/06/22 00:53:08;;;;;;;2.07;1.40;;;25.20;52.00;;;;;;4974388;28;20220;-66
2021/06/22 00:55:35;;;;;;;1.83;1.30;;;25.30;52.00;;;;;;4972269;28;20197;-66
2021/06/22 00:58:23;;;;;;;2.20;1.30;;;25.30;52.00;;;;;;4984141;28;20247;-66
2021/06/22 01:00:53;;;;;;;2.00;1.40;;;25.30;51.90;;;;;;4979349;28;20197;-66
2021/06/22 01:03:25;;;;;;;4.37;1.70;;;25.20;51.80;;;;;;4982510;28;20200;-66
2021/06/22 01:06:01;;;;;;;2.07;1.37;;;25.30;51.90;;;;;;4984215;28;20200;-66
2021/06/22 01:08:28;;;;;;;2.43;1.57;;;25.30;51.90;;;;;;4981735;28;20227;-66
2021/06/22 01:11:02;;;;;;;2.57;1.53;;;25.20;51.80;;;;;;4979824;28;20638;-66
2021/06/22 01:13:32;;;;;;;2.87;1.70;;;25.20;51.80;;;;;;4982576;28;20213;-66
2021/06/22 01:16:03;;;;;;;1.63;1.17;;;25.20;51.90;;;;;;4984475;28;20410;-66
2021/06/22 01:18:35;;;;;;;2.10;1.30;;;25.20;51.80;;;;;;4983619;28;20898;-66
2021/06/22 01:21:06;;;;;;;2.40;1.40;;;25.20;51.80;;;;;;4989091;28;20196;-66
2021/06/22 01:23:35;;;;;;;2.37;1.60;;;25.20;51.80;;;;;;4983933;28;20237;-66
2021/06/22 01:26:05;;;;;;;3.03;1.80;;;25.20;51.80;;;;;;4990120;28;20185;-66
2021/06/22 01:28:35;;;;;;;2.57;1.50;;;25.20;51.70;;;;;;4982008;28;20212;-66
2021/06/22 01:31:06;;;;;;;1.53;1.30;;;25.20;51.70;;;;;;4987640;28;20592;-66
2021/06/22 01:33:34;;;;;;;2.83;1.63;;;25.20;51.70;;;;;;4983585;28;20212;-66
2021/06/22 01:36:04;;;;;;;2.80;1.50;;;25.20;51.70;;;;;;4978028;28;20190;-66
2021/06/22 01:38:35;;;;;;;2.73;1.50;;;25.20;52.20;;;;;;4982134;28;20215;-66
2021/06/22 01:41:02;;;;;;;2.27;1.60;;;25.20;51.60;;;;;;4983374;28;20200;-66
2021/06/22 01:43:30;;;;;;;2.43;1.53;;;25.20;51.70;;;;;;4984472;28;20212;-67
2021/06/22 01:46:00;;;;;;;2.37;1.60;;;25.20;51.60;;;;;;4988452;28;20189;-66
2021/06/22 01:48:30;;;;;;;3.10;1.43;;;25.20;51.60;;;;;;4984685;28;20250;-66
2021/06/22 01:51:02;;;;;;;2.53;1.50;;;25.20;51.60;;;;;;4986319;28;20200;-66
2021/06/22 01:53:34;;;;;;;4.87;1.77;;;25.20;51.60;;;;;;4985788;28;20196;-66
2021/06/22 01:56:03;;;;;;;2.40;1.40;;;25.20;51.60;;;;;;4984590;28;20209;-66
2021/06/22 01:58:34;;;;;;;2.00;1.30;;;25.20;51.50;;;;;;4986669;28;20217;-66
2021/06/22 02:01:05;;;;;;;2.90;1.60;;;25.20;51.50;;;;;;4984809;28;20205;-66
2021/06/22 02:03:33;;;;;;;2.53;1.63;;;25.20;51.50;;;;;;4989633;28;20188;-66
2021/06/22 02:06:02;;;;;;;1.93;1.40;;;25.20;51.50;;;;;;4980281;28;20196;-66
2021/06/22 02:08:34;;;;;;;3.00;1.57;;;25.20;51.50;;;;;;4982276;28;20205;-66
2021/06/22 02:11:02;;;;;;;2.57;1.60;;;25.20;51.60;;;;;;4981437;28;20211;-66
2021/06/22 02:13:38;;;;;;;2.40;1.50;;;25.10;51.40;;;;;;4977794;28;20212;-66
2021/06/22 02:16:07;;;;;;;3.67;1.43;;;25.10;51.50;;;;;;4985669;28;20233;-66
2021/06/22 02:18:35;;;;;;;2.40;1.50;;;25.10;51.40;;;;;;4989107;28;20221;-66
2021/06/22 02:21:06;;;;;;;3.27;1.73;;;25.10;51.40;;;;;;4989528;28;20201;-66
2021/06/22 02:23:38;;;;;;;2.70;1.53;;;25.10;51.30;;;;;;4990848;28;20221;-66
2021/06/22 02:26:09;;;;;;;2.77;1.70;;;25.10;51.20;;;;;;4984648;28;20203;-66
2021/06/22 02:28:42;;;;;;;1.97;1.30;;;25.10;51.20;;;;;;4991036;28;20215;-66
2021/06/22 02:31:11;;;;;;;3.20;1.63;;;25.10;51.20;;;;;;4979740;28;20211;-66
2021/06/22 02:33:41;;;;;;;2.60;1.67;;;25.10;51.20;;;;;;4983003;28;20201;-66
2021/06/22 02:36:12;;;;;;;2.60;1.80;;;25.10;51.30;;;;;;4978683;28;20200;-66
2021/06/22 02:38:44;;;;;;;3.47;1.40;;;25.10;51.30;;;;;;4986785;28;20224;-66
2021/06/22 02:41:10;;;;;;;1.53;1.40;;;25.10;51.20;;;;;;4995728;28;20227;-66
2021/06/22 02:43:40;;;;;;;2.30;1.53;;;25.10;51.10;;;;;;4988339;28;20212;-66
2021/06/22 02:46:19;;;;;;;2.70;1.47;;;25.10;51.10;;;;;;4989110;28;20189;-66
2021/06/22 02:48:47;;;;;;;4.20;1.80;;;25.00;51.00;;;;;;4991293;28;20774;-66
2021/06/22 02:51:19;;;;;;;2.00;1.53;;;25.00;51.10;;;;;;4995552;28;20200;-66
2021/06/22 02:53:50;;;;;;;3.70;1.57;;;25.00;51.10;;;;;;4992855;28;20203;-66
2021/06/22 02:56:21;;;;;;;2.03;1.50;;;25.00;51.70;;;;;;4993551;28;20219;-66
2021/06/22 02:58:52;;;;;;;2.70;1.57;;;25.00;51.00;;;;;;4984919;28;20310;-66
2021/06/22 03:01:21;;;;;;;3.13;1.67;;;25.00;51.10;;;;;;4994552;28;20216;-66
2021/06/22 03:03:58;;;;;;;2.77;1.70;;;25.00;51.00;;;;;;4987558;28;20263;-66
2021/06/22 03:06:27;;;;;;;3.60;1.67;;;25.00;51.00;;;;;;4988971;28;20204;-66
2021/06/22 03:08:55;;;;;;;2.93;1.57;;;25.10;51.00;;;;;;5004825;28;20193;-66
2021/06/22 03:11:25;;;;;;;2.83;1.60;;;25.00;50.90;;;;;;4987915;28;20226;-66
2021/06/22 03:13:55;;;;;;;2.57;1.53;;;25.00;50.90;;;;;;4979315;28;20207;-66
2021/06/22 03:16:29;;;;;;;3.83;1.50;;;25.00;50.90;;;;;;4982975;28;20241;-66
2021/06/22 03:19:06;;;;;;;3.97;1.53;;;25.00;50.90;;;;;;4991447;28;20200;-67
2021/06/22 03:21:42;;;;;;;2.87;1.67;;;25.00;50.90;;;;;;4986562;28;20207;-67
2021/06/22 03:24:24;;;;;;;2.57;1.47;;;25.00;50.90;;;;;;4979369;28;20296;-66
2021/06/22 03:26:53;;;;;;;3.03;1.50;;;25.00;50.90;;;;;;4985588;28;20279;-66
2021/06/22 03:29:24;;;;;;;3.43;1.73;;;25.00;50.90;;;;;;4987831;28;20200;-66
2021/06/22 03:31:53;;;;;;;3.50;1.80;;;25.00;50.90;;;;;;4988430;28;20200;-66
2021/06/22 03:34:23;;;;;;;2.93;1.50;;;25.00;50.90;;;;;;4987362;28;20827;-66
2021/06/22 03:36:59;;;;;;;2.33;1.70;;;25.00;51.40;;;;;;4986844;28;20769;-66
2021/06/22 03:39:28;;;;;;;2.23;1.63;;;25.00;50.80;;;;;;4981870;28;20215;-66
2021/06/22 03:41:57;;;;;;;4.10;2.13;;;25.00;50.80;;;;;;4989889;28;20193;-66
2021/06/22 03:44:27;;;;;;;3.20;1.60;;;25.00;50.80;;;;;;4982865;28;20205;-66
2021/06/22 03:46:55;;;;;;;3.53;2.03;;;25.00;50.80;;;;;;4991892;28;20185;-66
2021/06/22 03:49:24;;;;;;;2.63;1.70;;;25.00;50.80;;;;;;4986507;28;20204;-65
2021/06/22 03:51:56;;;;;;;4.87;1.70;;;25.00;50.80;;;;;;4990154;28;20652;-66
2021/06/22 03:54:25;;;;;;;3.90;1.87;;;25.00;50.80;;;;;;4983482;28;20207;-66
2021/06/22 03:56:55;;;;;;;2.03;1.73;;;25.00;50.80;;;;;;4989549;28;20201;-68
2021/06/22 03:59:25;;;;;;;2.53;1.83;;;25.00;50.70;;;;;;4983486;28;20197;-68
2021/06/22 04:01:55;;;;;;;2.87;1.83;;;25.00;50.70;;;;;;4982832;28;20692;-66
2021/06/22 04:04:27;;;;;;;3.73;2.00;;;25.00;50.70;;;;;;4986768;28;20196;-66
2021/06/22 04:06:58;;;;;;;2.73;1.80;;;25.00;50.80;;;;;;4987945;28;20231;-66
2021/06/22 04:09:30;;;;;;;4.60;2.10;;;25.00;50.80;;;;;;4988788;28;20197;-66
2021/06/22 04:12:03;;;;;;;2.77;1.70;;;24.90;50.70;;;;;;4990491;28;20207;-66
2021/06/22 04:14:34;;;;;;;3.03;1.80;;;25.00;50.70;;;;;;4992214;28;20211;-66
2021/06/22 04:17:06;;;;;;;3.07;1.90;;;24.90;50.70;;;;;;4990965;28;20229;-67
2021/06/22 04:19:36;;;;;;;2.70;1.60;;;24.90;50.70;;;;;;4989494;28;20531;-67
2021/06/22 04:22:04;;;;;;;4.53;1.77;;;25.00;50.80;;;;;;4988684;28;20189;-69
2021/06/22 04:24:35;;;;;;;2.37;1.90;;;24.90;50.70;;;;;;4984646;28;20208;-68
2021/06/22 04:27:04;;;;;;;2.40;1.83;;;24.90;50.70;;;;;;4982209;28;20201;-68
2021/06/22 04:29:35;;;;;;;3.63;1.80;;;24.90;50.70;;;;;;4990805;28;20192;-68
2021/06/22 04:32:04;;;;;;;3.23;2.00;;;24.90;50.70;;;;;;4982287;28;20201;-68
2021/06/22 04:34:33;;;;;;;3.20;1.87;;;24.90;50.60;;;;;;4987698;28;20603;-69
2021/06/22 04:37:05;;;;;;;3.30;2.40;;;24.90;50.70;;;;;;4984739;28;20215;-68
2021/06/22 04:39:34;;;;;;;3.57;1.83;;;24.90;50.70;;;;;;4987874;28;20209;-68
2021/06/22 04:42:04;;;;;;;3.13;1.67;;;24.90;50.60;;;;;;4984141;28;20211;-68
2021/06/22 04:44:34;;;;;;;2.67;1.90;;;24.90;50.60;;;;;;4979511;28;20220;-68
2021/06/22 04:47:05;;;;;;;2.97;1.73;;;24.90;50.60;;;;;;4984466;28;20192;-67
2021/06/22 04:49:37;;;;;;;2.67;2.10;;;24.90;50.60;;;;;;4986921;28;20712;-67
2021/06/22 04:52:11;;;;;;;2.70;1.60;;;24.90;50.60;;;;;;4982761;28;20200;-67
2021/06/22 04:54:39;;;;;;;4.53;2.10;;;24.90;50.60;;;;;;4977005;28;20250;-66
2021/06/22 04:57:13;;;;;;;3.70;2.07;;;24.90;50.60;;;;;;5001312;28;20205;-66
2021/06/22 04:59:47;;;;;;;2.90;2.20;;;24.90;50.70;;;;;;4980074;28;20280;-66
2021/06/22 05:02:21;;;;;;;3.33;1.93;;;24.90;50.60;;;;;;4992565;28;20540;-66
2021/06/22 05:04:51;;;;;;;3.03;2.07;;;24.90;50.60;;;;;;4980651;28;20200;-66
2021/06/22 05:07:21;;;;;;;4.70;2.40;;;24.90;50.60;;;;;;4978316;28;20197;-66
2021/06/22 05:09:51;;;;;;;4.43;2.67;;;24.90;50.60;;;;;;4980461;28;20196;-65
2021/06/22 05:12:23;;;;;;;7.00;2.70;;;24.90;50.60;;;;;;4977414;28;20204;-65
2021/06/22 05:15:07;;;;;;;5.90;2.60;;;24.90;50.50;;;;;;4976889;28;20279;-66
2021/06/22 05:17:38;;;;;;;5.03;3.10;;;24.90;50.50;;;;;;4978319;28;20236;-66
2021/06/22 05:20:06;;;;;;;5.60;2.90;;;24.90;50.50;;;;;;4970051;28;20189;-66
2021/06/22 05:22:34;;;;;;;6.13;2.67;;;24.90;50.40;;;;;;4983240;28;20211;-67
2021/06/22 05:25:06;;;;;;;4.67;2.40;;;24.90;50.40;;;;;;4995229;28;20233;-67
2021/06/22 05:27:35;;;;;;;5.40;2.30;;;24.90;50.40;;;;;;4981475;28;20219;-66
2021/06/22 05:30:08;;;;;;;6.50;2.80;;;24.90;50.40;;;;;;4982878;28;20216;-66
2021/06/22 05:32:36;;;;;;;4.63;2.50;;;24.90;50.30;;;;;;4986254;28;20218;-67
2021/06/22 05:35:07;;;;;;;6.20;3.30;;;24.90;50.30;;;;;;4986021;28;20204;-67
2021/06/22 05:37:40;;;;;;;5.03;2.80;;;24.90;50.20;;;;;;4980191;28;20677;-66
2021/06/22 05:40:11;;;;;;;4.93;2.90;;;24.90;50.20;;;;;;4977122;28;20196;-65
2021/06/22 05:42:55;;;;;;;5.77;2.87;;;24.90;50.20;;;;;;4981574;28;20283;-65
2021/06/22 05:45:24;;;;;;;5.77;2.57;;;24.80;50.10;;;;;;4980283;28;20200;-65
2021/06/22 05:47:56;;;;;;;4.87;2.43;;;24.90;50.20;;;;;;4985741;28;20776;-66
2021/06/22 05:50:27;;;;;;;6.40;2.83;;;24.80;50.10;;;;;;4987119;28;20193;-66
2021/06/22 05:52:56;;;;;;;4.80;2.90;;;24.90;50.20;;;;;;4986066;28;20189;-65
2021/06/22 05:55:33;;;;;;;5.10;2.37;;;24.80;50.00;;;;;;4988113;28;20244;-65
2021/06/22 05:58:14;;;;;;;4.63;2.70;;;24.80;50.70;;;;;;4990920;28;20222;-65
2021/06/22 06:00:48;;;;;;;3.40;2.50;;;24.80;50.10;;;;;;4983023;28;20193;-68
2021/06/22 06:03:19;;;;;;;3.43;2.40;;;24.80;50.20;;;;;;4981258;28;20651;-68
2021/06/22 06:05:49;;;;;;;5.50;2.53;;;24.90;50.20;;;;;;4982960;28;20200;-68
2021/06/22 06:08:18;;;;;;;3.47;2.20;;;24.90;50.20;;;;;;4991989;28;20630;-68
2021/06/22 06:10:50;;;;;;;5.13;2.63;;;24.80;50.10;;;;;;4984084;28;20215;-68
2021/06/22 06:13:19;;;;;;;2.83;2.20;;;24.80;50.00;;;;;;4982256;28;20205;-68
2021/06/22 06:15:49;;;;;;;3.37;2.23;;;24.80;50.00;;;;;;4984808;28;20742;-69
2021/06/22 06:18:20;;;;;;;3.83;2.43;;;24.80;49.90;;;;;;4978518;28;20250;-68
2021/06/22 06:20:51;;;;;;;3.17;2.10;;;24.80;49.90;;;;;;4985392;28;20204;-67
2021/06/22 06:23:20;;;;;;;3.80;2.13;;;24.80;49.90;;;;;;4974568;28;20209;-66
2021/06/22 06:25:50;;;;;;;3.70;2.23;;;24.80;49.90;;;;;;4981588;28;20247;-66
2021/06/22 06:28:29;;;;;;;3.17;2.17;;;24.80;49.80;;;;;;4981445;28;20544;-66
2021/06/22 06:31:08;;;;;;;3.23;2.20;;;24.80;49.80;;;;;;4975656;28;20236;-68
2021/06/22 06:33:39;;;;;;;3.87;2.23;;;24.80;49.90;;;;;;4992099;28;20211;-68
2021/06/22 06:36:07;;;;;;;4.20;2.27;;;24.90;49.90;;;;;;4974224;28;20204;-65
2021/06/22 06:38:42;;;;;;;3.20;2.00;;;24.80;49.90;;;;;;4974580;28;20223;-64
2021/06/22 06:41:13;;;;;;;3.53;2.00;;;24.80;49.80;;;;;;4975891;28;20197;-64
2021/06/22 06:43:44;;;;;;;2.00;1.80;;;24.90;49.80;;;;;;4987086;28;20196;-64
2021/06/22 06:46:12;;;;;;;2.30;1.80;;;24.80;49.80;;;;;;4995256;28;20200;-67
2021/06/22 06:48:45;;;;;;;3.87;2.30;;;24.80;49.70;;;;;;4987257;28;20201;-68
2021/06/22 06:51:12;;;;;;;2.70;2.07;;;24.90;49.80;;;;;;4983120;28;20204;-66
2021/06/22 06:53:44;;;;;;;2.90;1.80;;;24.80;49.70;;;;;;4992519;28;20528;-68
2021/06/22 06:56:11;;;;;;;3.47;1.90;;;24.80;49.70;;;;;;4976116;28;20205;-66
2021/06/22 06:58:39;;;;;;;2.50;1.80;;;24.80;49.80;;;;;;4975325;28;20231;-65
2021/06/22 07:01:10;;;;;;;3.63;2.17;;;24.80;49.80;;;;;;4978301;28;20181;-65
2021/06/22 07:03:39;;;;;;;3.17;2.50;;;24.90;50.00;;;;;;4978927;28;20226;-65
2021/06/22 07:06:08;;;;;;;2.67;1.90;;;24.90;50.20;;;;;;4982815;28;20197;-66
2021/06/22 07:08:39;;;;;;;4.70;2.60;;;24.90;50.40;;;;;;4977549;28;20239;-66
2021/06/22 07:11:08;;;;;;;3.67;2.50;;;24.90;50.60;;;;;;4985056;28;20207;-65
2021/06/22 07:13:36;;;;;;;2.73;2.10;;;24.90;50.70;;;;;;4982821;28;20219;-65
2021/06/22 07:16:03;;;;;;;3.60;2.40;;;24.90;50.90;;;;;;4972787;28;20247;-67
2021/06/22 07:18:35;;;;;;;4.80;2.27;;;24.90;51.00;;;;;;4987924;28;20706;-67
2021/06/22 07:21:03;;;;;;;3.03;2.10;;;24.90;51.00;;;;;;4983432;28;20205;-66
2021/06/22 07:23:34;;;;;;;3.00;2.27;;;24.90;51.70;;;;;;4978816;28;20204;-66
2021/06/22 07:26:03;;;;;;;3.60;2.00;;;24.90;51.10;;;;;;4984533;28;20217;-67
2021/06/22 07:28:31;;;;;;;3.83;2.20;;;24.90;51.10;;;;;;4984542;28;20200;-69
2021/06/22 07:31:04;;;;;;;3.10;2.20;;;24.90;51.10;;;;;;4977988;28;20219;-69
2021/06/22 07:33:34;;;;;;;2.93;1.77;;;24.90;51.10;;;;;;4980933;28;21673;-69
2021/06/22 07:36:02;;;;;;;3.60;2.50;;;24.90;50.90;;;;;;4978389;28;20189;-66
2021/06/22 07:38:30;;;;;;;3.20;1.90;;;24.90;50.90;;;;;;4991722;28;20196;-65
2021/06/22 07:40:57;;;;;;;2.70;2.23;;;24.90;50.80;;;;;;4983253;28;20202;-66
2021/06/22 07:43:24;;;;;;;3.00;2.00;;;24.90;50.80;;;;;;4999431;28;20211;-67
2021/06/22 07:46:06;;;;;;;2.87;2.10;;;24.90;50.80;;;;;;4994078;28;20196;-65
2021/06/22 07:48:38;;;;;;;3.63;2.37;;;24.90;50.80;;;;;;4984726;28;20196;-65
2021/06/22 07:51:07;;;;;;;3.17;2.13;;;25.00;50.80;;;;;;4993688;28;20212;-65
2021/06/22 07:53:35;;;;;;;2.37;2.00;;;25.00;50.80;;;;;;4993756;28;20215;-65
2021/06/22 07:56:04;;;;;;;2.73;1.80;;;24.90;50.70;;;;;;4991738;28;20202;-66
2021/06/22 07:58:32;;;;;;;2.57;1.90;;;25.00;50.70;;;;;;4986208;28;20221;-67
2021/06/22 08:01:00;;;;;;;3.33;2.20;;;25.00;50.70;;;;;;4987669;28;20202;-67
2021/06/22 08:03:28;;;;;;;2.40;1.93;;;25.00;50.70;;;;;;4987071;28;20218;-67
2021/06/22 08:05:57;;;;;;;2.97;2.20;;;25.00;50.60;;;;;;4971869;28;20201;-65
2021/06/22 08:08:24;;;;;;;2.53;2.20;;;25.00;50.60;;;;;;4971763;28;20211;-66
2021/06/22 08:10:53;;;;;;;3.57;1.93;;;25.00;50.60;;;;;;4987743;28;20212;-65
2021/06/22 08:13:26;;;;;;;2.10;1.90;;;25.00;50.50;;;;;;4986004;28;20203;-65
2021/06/22 08:15:59;;;;;;;2.77;1.70;;;25.00;50.50;;;;;;4985350;28;20254;-65
2021/06/22 08:18:36;;;;;;;2.43;1.70;;;25.00;50.50;;;;;;4984680;28;20215;-65
2021/06/22 08:21:08;;;;;;;3.10;1.93;;;25.00;50.40;;;;;;4984102;28;20196;-66
2021/06/22 08:23:37;;;;;;;2.90;1.80;;;25.00;50.50;;;;;;4986731;28;20283;-66
2021/06/22 08:26:05;;;;;;;2.20;2.00;;;25.00;50.40;;;;;;4970514;28;20190;-66
2021/06/22 08:28:36;;;;;;;2.50;2.00;;;25.00;50.40;;;;;;4987035;28;20200;-65
2021/06/22 08:31:20;;;;;;;2.30;1.90;;;25.00;50.40;;;;;;4967789;28;20221;-65
2021/06/22 08:33:48;;;;;;;2.13;1.93;;;25.00;50.30;;;;;;4966993;28;20821;-65
2021/06/22 08:36:17;;;;;;;2.30;1.90;;;25.00;50.30;;;;;;4986079;28;20193;-65
2021/06/22 08:38:46;;;;;;;2.83;1.80;;;25.00;50.40;;;;;;4984701;28;20270;-65
2021/06/22 08:41:17;;;;;;;2.17;1.97;;;25.00;50.30;;;;;;4986831;28;20192;-65
2021/06/22 08:43:46;;;;;;;3.70;1.83;;;25.00;50.30;;;;;;4986789;28;20193;-66
2021/06/22 08:46:22;;;;;;;3.07;1.90;;;25.10;50.30;;;;;;4990936;28;20215;-65
2021/06/22 08:48:51;;;;;;;3.30;1.90;;;25.10;50.30;;;;;;4992179;28;20603;-65
2021/06/22 08:51:37;;;;;;;3.03;1.97;;;25.10;50.30;;;;;;4988622;28;20530;-65
2021/06/22 08:54:10;;;;;;;2.77;1.90;;;25.10;50.30;;;;;;4990503;28;20235;-65
2021/06/22 08:56:40;;;;;;;2.40;2.10;;;25.00;50.30;;;;;;4978913;28;20248;-66
2021/06/22 08:59:09;;;;;;;2.93;2.03;;;25.00;50.30;;;;;;4980969;28;20235;-67
2021/06/22 09:01:41;;;;;;;3.30;1.87;;;25.10;50.30;;;;;;4973898;28;20197;-67
2021/06/22 09:04:08;;;;;;;3.97;2.40;;;25.10;50.30;;;;;;4973232;28;20582;-66
2021/06/22 09:06:42;;;;;;;2.17;1.90;;;25.10;50.20;;;;;;4987066;28;20338;-66
2021/06/22 09:09:10;;;;;;;3.23;2.10;;;25.10;50.20;;;;;;4984097;28;20200;-65
2021/06/22 09:11:41;;;;;;;2.23;2.03;;;25.10;50.10;;;;;;4986681;28;20193;-65
2021/06/22 09:14:10;;;;;;;3.37;2.40;;;25.10;50.70;;;;;;4979164;28;20216;-65
2021/06/22 09:16:41;;;;;;;2.93;2.10;;;25.10;50.10;;;;;;4986001;28;20232;-67
2021/06/22 09:19:11;;;;;;;2.80;2.50;;;25.10;50.00;;;;;;4983970;28;20283;-67
2021/06/22 09:21:40;;;;;;;2.60;2.40;;;25.10;50.00;;;;;;4985463;28;20208;-67
2021/06/22 09:24:26;;;;;;;2.97;2.47;;;25.10;49.90;;;;;;4983955;28;20254;-67
2021/06/22 09:26:55;;;;;;;2.63;2.43;;;25.10;49.90;;;;;;4967055;28;20197;-68
2021/06/22 09:29:26;;;;;;;4.87;2.90;;;25.10;49.90;;;;;;4978022;28;20774;-68
2021/06/22 09:32:02;;;;;;;3.60;2.50;;;25.10;49.80;;;;;;4986678;28;20234;-67
2021/06/22 09:34:31;;;;;;;3.00;2.70;;;25.10;49.80;;;;;;4982819;28;20258;-67
2021/06/22 09:37:07;;;;;;;3.30;2.70;;;25.10;49.80;;;;;;4967326;28;20207;-67
2021/06/22 09:39:38;;;;;;;4.63;2.90;;;25.10;49.80;;;;;;4965417;28;20197;-66
2021/06/22 09:42:12;;;;;;;3.40;3.10;;;25.10;49.60;;;;;;4966955;28;20266;-68
2021/06/22 09:44:43;;;;;;;3.80;3.50;;;25.10;49.70;;;;;;4966356;28;20200;-68
2021/06/22 09:47:11;;;;;;;3.40;2.70;;;25.10;49.60;;;;;;4973641;28;20184;-68
2021/06/22 09:49:40;;;;;;;4.20;3.10;;;25.10;49.60;;;;;;4982427;28;20791;-68
2021/06/22 09:52:14;;;;;;;4.63;3.40;;;25.10;49.60;;;;;;4986789;28;20262;-68
2021/06/22 09:54:47;;;;;;;5.33;3.23;;;25.10;49.60;;;;;;4981295;28;20227;-69
2021/06/22 09:57:25;;;;;;;3.47;3.17;;;25.10;49.60;;;;;;4966552;28;20613;-68
2021/06/22 10:00:08;;;;;;;3.20;3.00;;;25.20;49.60;;;;;;4979025;28;20219;-68
2021/06/22 10:02:53;;;;;;;3.60;3.20;;;25.20;49.60;;;;;;4965840;28;20283;-68
2021/06/22 10:05:22;;;;;;;3.83;3.53;;;25.20;49.50;;;;;;4974476;28;20181;-67
2021/06/22 10:07:58;;;;;;;4.07;3.67;;;25.20;49.50;;;;;;4984064;28;20704;-66
2021/06/22 10:10:40;;;;;;;3.90;3.50;;;25.20;49.50;;;;;;4980942;28;20240;-66
2021/06/22 10:13:08;;;;;;;4.20;3.50;;;25.20;49.50;;;;;;4966206;28;20201;-65
2021/06/22 10:15:35;;;;;;;4.13;3.70;;;25.20;49.50;;;;;;4965971;28;20270;-66
2021/06/22 10:18:04;;;;;;;4.70;3.80;;;25.20;49.50;;;;;;4965376;28;20232;-66
2021/06/22 10:20:31;;;;;;;3.83;3.53;;;25.20;49.50;;;;;;4966789;28;20347;-67
2021/06/22 10:23:03;;;;;;;4.63;3.67;;;25.20;49.40;;;;;;4980235;28;20201;-67
2021/06/22 10:25:31;;;;;;;5.47;4.17;;;25.20;49.50;;;;;;4985000;28;20177;-66
2021/06/22 10:27:58;;;;;;;4.70;4.30;;;25.20;49.30;;;;;;4967933;28;20211;-66
2021/06/22 10:30:27;;;;;;;4.90;4.47;;;25.20;49.20;;;;;;5000794;28;20205;-65
2021/06/22 10:32:55;;;;;;;4.43;4.03;;;25.20;49.80;;;;;;4980821;28;20200;-66
2021/06/22 10:35:25;;;;;;;5.23;4.30;;;25.20;49.20;;;;;;4966777;28;20248;-66
2021/06/22 10:37:58;;;;;;;6.07;4.43;;;25.20;49.20;;;;;;4970614;28;20197;-66
2021/06/22 10:40:34;;;;;;;5.27;4.77;;;25.20;49.10;;;;;;4972033;28;20209;-66
2021/06/22 10:43:06;;;;;;;5.00;4.60;;;25.20;49.10;;;;;;4976567;28;20384;-67
2021/06/22 10:46:03;;;;;;;5.77;5.17;;;25.20;49.20;;;;;;4977746;28;20196;-67
2021/06/22 10:48:47;;;;;;;5.60;5.10;;;25.20;49.10;;;;;;4986952;28;20191;-68
2021/06/22 10:51:43;;;;;;;5.70;4.60;;;25.20;49.10;;;;;;5008472;28;20168;-66
2021/06/22 10:54:50;;;;;;;5.17;4.50;;;25.20;49.10;;;;;;4988449;28;20185;-66
2021/06/22 10:57:17;;;;;;;5.77;5.27;;;25.20;49.10;;;;;;4974084;28;20231;-66
2021/06/22 11:00:03;;;;;;;5.67;5.17;;;25.20;49.10;;;;;;4979407;28;20213;-66
2021/06/22 11:02:59;;;;;;;5.47;4.97;;;25.30;49.20;;;;;;4969099;28;20729;-66
2021/06/22 11:05:36;;;;;;;5.40;5.00;;;25.30;49.20;;;;;;4972863;28;20437;-66
2021/06/22 11:08:21;;;;;;;5.17;4.77;;;25.20;49.00;;;;;;4969400;28;20201;-66
2021/06/22 11:10:53;;;;;;;5.13;4.63;;;25.20;49.20;;;;;;4970899;28;20615;-66
2021/06/22 11:13:56;;;;;;;5.60;5.10;;;25.20;49.20;;;;;;4969885;28;20204;-65
2021/06/22 11:16:31;;;;;;;5.40;4.90;;;25.30;49.30;;;;;;4985532;28;20239;-65
2021/06/22 11:19:10;;;;;;;5.00;4.60;;;25.30;49.30;;;;;;4980862;28;20203;-65
2021/06/22 11:21:46;;;;;;;5.30;4.90;;;25.30;49.30;;;;;;5009704;28;20191;-65
2021/06/22 11:24:18;;;;;;;5.57;5.07;;;25.30;49.30;;;;;;5004513;28;20859;-65
2021/06/22 11:27:00;;;;;;;6.20;5.30;;;25.30;49.30;;;;;;4988619;28;20197;-64
2021/06/22 11:29:37;;;;;;;6.07;5.47;;;25.30;49.10;;;;;;4980116;28;20205;-65
2021/06/22 11:32:08;;;;;;;5.43;5.00;;;25.30;49.10;;;;;;4970829;28;20212;-65
2021/06/22 11:34:57;;;;;;;5.97;5.40;;;25.30;49.10;;;;;;4984569;28;20202;-65
2021/06/22 11:37:27;;;;;;;5.73;5.33;;;25.30;49.00;;;;;;4988060;28;20208;-66
2021/06/22 11:40:00;;;;;;;6.20;5.70;;;25.40;49.10;;;;;;4954813;28;20217;-66
2021/06/22 11:42:36;;;;;;;5.73;5.23;;;25.30;49.10;;;;;;4969082;28;20197;-67
2021/06/22 11:45:14;;;;;;;5.63;5.17;;;25.40;49.10;;;;;;4973272;28;20259;-66
2021/06/22 11:47:49;;;;;;;6.13;5.63;;;25.30;49.00;;;;;;4982295;28;20226;-66
2021/06/22 11:50:26;;;;;;;6.30;5.70;;;25.30;48.90;;;;;;4968984;28;20209;-67
2021/06/22 11:53:10;;;;;;;5.77;5.27;;;25.40;48.90;;;;;;4982103;28;20801;-68
2021/06/22 11:55:48;;;;;;;6.57;5.87;;;25.40;49.00;;;;;;4983612;28;20196;-66
2021/06/22 11:58:24;;;;;;;6.77;6.07;;;25.40;49.20;;;;;;4985920;28;20218;-66
2021/06/22 12:00:55;;;;;;;5.47;5.07;;;25.40;49.20;;;;;;4983863;28;20208;-66
2021/06/22 12:03:25;;;;;;;5.77;5.30;;;25.40;49.30;;;;;;4988698;28;20201;-65
2021/06/22 12:06:02;;;;;;;6.43;5.93;;;25.40;49.40;;;;;;4984052;28;20200;-65
2021/06/22 12:08:37;;;;;;;6.20;5.70;;;25.40;49.40;;;;;;4983429;28;20183;-65
2021/06/22 12:11:10;;;;;;;6.53;6.03;;;25.40;49.40;;;;;;4988215;28;20196;-66
2021/06/22 12:13:41;;;;;;;6.83;6.23;;;25.40;49.20;;;;;;4985895;28;20582;-66
2021/06/22 12:16:25;;;;;;;6.37;5.83;;;25.50;49.30;;;;;;4983832;28;20244;-66
2021/06/22 12:18:55;;;;;;;6.20;5.77;;;25.40;49.20;;;;;;4977098;28;20779;-66
2021/06/22 12:21:23;;;;;;;7.40;6.80;;;25.40;49.20;;;;;;4968434;28;20225;-66
2021/06/22 12:23:58;;;;;;;6.73;6.23;;;25.50;49.20;;;;;;4980362;28;20200;-66
2021/06/22 12:26:26;;;;;;;6.80;6.20;;;25.40;49.00;;;;;;4973572;28;20718;-67
2021/06/22 12:28:55;;;;;;;6.73;6.17;;;25.50;49.20;;;;;;4967168;28;20601;-67
2021/06/22 12:31:23;;;;;;;6.83;6.23;;;25.40;49.10;;;;;;4991024;28;20201;-68
2021/06/22 12:33:58;;;;;;;6.70;6.10;;;25.50;49.20;;;;;;4986278;28;20206;-68
2021/06/22 12:36:34;;;;;;;7.13;6.53;;;25.50;49.10;;;;;;4988267;28;20192;-67
2021/06/22 12:39:05;;;;;;;7.93;7.13;;;25.40;48.90;;;;;;4984022;28;20200;-67
2021/06/22 12:41:39;;;;;;;7.97;7.37;;;25.50;48.80;;;;;;4988423;28;20799;-67
2021/06/22 12:44:09;;;;;;;8.67;7.97;;;25.50;48.50;;;;;;4984871;28;20193;-67
2021/06/22 12:46:42;;;;;;;8.40;7.80;;;25.50;48.30;;;;;;4994863;28;20203;-66
2021/06/22 12:49:15;;;;;;;9.83;8.83;;;25.50;48.20;;;;;;4991042;28;20202;-66
2021/06/22 12:51:48;;;;;;;9.53;8.63;;;25.50;47.90;;;;;;4985873;28;20196;-68
2021/06/22 12:54:16;;;;;;;9.37;8.60;;;25.50;47.60;;;;;;4984087;28;20197;-67
2021/06/22 12:56:48;;;;;;;9.90;9.10;;;25.50;47.50;;;;;;4968724;28;20278;-67
2021/06/22 12:59:21;;;;;;;10.20;9.30;;;25.50;47.20;;;;;;4965076;28;20211;-66
2021/06/22 13:01:54;;;;;;;10.60;9.70;;;25.50;47.10;;;;;;4979549;28;20633;-65
2021/06/22 13:04:22;;;;;;;11.07;9.97;;;25.50;46.90;;;;;;4970203;28;20200;-66
2021/06/22 13:06:53;;;;;;;10.70;9.80;;;25.50;46.90;;;;;;4978921;28;20215;-66
2021/06/22 13:09:23;;;;;;;9.90;9.10;;;25.50;47.10;;;;;;4975848;28;20205;-65